createdAt,value
2023-04-09T00:00:04.305Z,991.3
2023-04-09T00:19:19.120Z,991.2
2023-04-09T00:38:32.569Z,991.1
2023-04-09T00:57:45.551Z,991.1
2023-04-09T01:16:57.546Z,991.2
2023-04-09T01:36:07.006Z,991.2
2023-04-09T01:55:18.141Z,991.2
2023-04-09T02:14:30.517Z,991.2
2023-04-09T02:33:42.434Z,991.1
2023-04-09T02:52:54.234Z,991.1
2023-04-09T03:12:05.198Z,991
2023-04-09T03:31:17.777Z,990.9
2023-04-09T03:50:29.403Z,990.9
2023-04-09T04:09:42.826Z,990.8
2023-04-09T04:28:54.673Z,990.9
2023-04-09T04:48:07.462Z,990.9
2023-04-09T05:07:15.575Z,990.9
2023-04-09T05:26:29.914Z,991
2023-04-09T05:45:43.019Z,991
2023-04-09T06:04:57.842Z,991.1
2023-04-09T06:24:13.358Z,991.1
2023-04-09T06:43:29.031Z,991.1
2023-04-09T07:02:41.698Z,991.2
2023-04-09T07:21:57.216Z,991.2
2023-04-09T07:41:18.365Z,991.2
2023-04-09T08:00:50.914Z,991.2
2023-04-09T08:19:52.107Z,991.1
2023-04-09T08:39:08.508Z,991.1
2023-04-09T08:58:25.873Z,991.1
2023-04-09T09:17:31.715Z,991.1
2023-04-09T09:36:33.745Z,991.1
2023-04-09T09:55:41.039Z,991.1
2023-04-09T10:14:50.966Z,990.9
2023-04-09T10:34:03.970Z,990.8
2023-04-09T10:53:15.393Z,990.7
2023-04-09T11:12:23.408Z,990.6
2023-04-09T11:31:37.434Z,990.6
2023-04-09T11:50:45.513Z,990.6
2023-04-09T12:10:00.644Z,990.5
2023-04-09T12:29:11.392Z,990.4
2023-04-09T12:48:24.391Z,990.3
2023-04-09T13:07:37.532Z,990.2
2023-04-09T13:26:46.304Z,990.2
2023-04-09T13:46:01.081Z,990.1
2023-04-09T14:05:12.712Z,990
2023-04-09T14:24:24.672Z,989.9
2023-04-09T14:43:34.230Z,989.9
2023-04-09T15:02:46.996Z,989.7
2023-04-09T15:21:57.540Z,989.7
2023-04-09T15:41:09.527Z,989.7
2023-04-09T16:00:22.257Z,989.7
2023-04-09T16:19:35.094Z,989.6
2023-04-09T16:38:47.730Z,989.5
2023-04-09T16:57:56.575Z,989.6
2023-04-09T17:17:08.636Z,989.5
2023-04-09T17:36:19.435Z,989.3
2023-04-09T17:55:30.814Z,989.3
2023-04-09T18:14:39.032Z,989.5
2023-04-09T18:33:48.849Z,989.6
2023-04-09T18:52:59.412Z,989.6
2023-04-09T19:12:10.627Z,989.7
2023-04-09T19:31:21.973Z,989.7
2023-04-09T19:50:32.718Z,989.7
2023-04-09T20:09:44.178Z,989.7
2023-04-09T20:28:55.191Z,989.5
2023-04-09T20:48:05.761Z,989.4
2023-04-09T21:07:16.900Z,989.5
2023-04-09T21:26:25.156Z,989.4
2023-04-09T21:45:35.379Z,989.3
2023-04-09T22:04:44.022Z,989.2
2023-04-09T22:23:55.342Z,989.3
2023-04-09T22:43:05.758Z,989.3
2023-04-09T23:02:14.862Z,989.2
2023-04-09T23:21:25.240Z,989.5
2023-04-09T23:40:37.659Z,989.5
2023-04-09T23:59:44.612Z,989.4
